Time;durP1;ratioP1;P1;durP2;ratioP2;P2;SDS_P1;SDS_P2;PMS_P1;PMS_P2;Temp;Humidity;BMP_temperature;BMP_pressure;BME280_temperature;BME280_humidity;BME280_pressure;Samples;Min_cycle;Max_cycle;Signal;HPM_P1;HPM_P2
2023/06/13 00:00:07;;;;;;;3.53;1.90;;;;;;;25.38;36.01;99528.44;4472569;31;33168;-60
2023/06/13 00:02:34;;;;;;;4.03;1.92;;;;;;;25.38;36.03;99533.88;4513271;31;33946;-69
2023/06/13 00:05:03;;;;;;;6.55;2.28;;;;;;;25.40;36.01;99523.53;4515416;31;33978;-68
2023/06/13 00:07:32;;;;;;;2.90;1.70;;;;;;;25.38;36.01;99531.16;4515760;31;34178;-62
2023/06/13 00:10:00;;;;;;;2.93;1.60;;;;;;;25.38;36.04;99525.69;4515392;31;34113;-59
2023/06/13 00:12:28;;;;;;;4.65;2.00;;;;;;;25.38;36.03;99521.06;4515402;31;34268;-67
2023/06/13 00:14:56;;;;;;;3.47;1.80;;;;;;;25.38;36.05;99526.53;4515333;31;34784;-69
2023/06/13 00:17:25;;;;;;;8.43;2.00;;;;;;;25.37;36.05;99515.84;4515192;31;34276;-65
2023/06/13 00:19:56;;;;;;;4.28;1.73;;;;;;;25.38;36.04;99518.31;4515291;31;33571;-63
2023/06/13 00:22:24;;;;;;;3.80;2.00;;;;;;;25.38;36.04;99515.59;4515252;31;34643;-61
2023/06/13 00:24:52;;;;;;;3.87;1.90;;;;;;;25.38;36.03;99509.31;4514957;31;34093;-67
2023/06/13 00:27:19;;;;;;;3.92;2.35;;;;;;;25.37;36.00;99510.41;4515375;31;33272;-66
2023/06/13 00:29:47;;;;;;;2.65;1.70;;;;;;;25.36;36.05;99506.81;4516531;31;33520;-64
2023/06/13 00:32:15;;;;;;;3.83;2.33;;;;;;;25.38;36.03;99506.59;4517059;31;33555;-69
2023/06/13 00:34:43;;;;;;;3.15;1.70;;;;;;;25.36;36.03;99493.16;4517657;31;34436;-69
2023/06/13 00:37:13;;;;;;;4.18;2.00;;;;;;;25.35;36.00;99499.69;4502903;31;33591;-57
2023/06/13 00:39:42;;;;;;;2.75;1.42;;;;;;;25.36;36.01;99495.88;4517049;31;33990;-58
2023/06/13 00:42:10;;;;;;;4.90;2.20;;;;;;;25.35;36.03;99502.44;4517085;31;35152;-70
2023/06/13 00:44:39;;;;;;;3.25;1.70;;;;;;;25.35;36.06;99498.87;4517115;31;34589;-69
2023/06/13 00:47:13;;;;;;;3.83;2.00;;;;;;;25.36;36.03;99495.88;4517228;31;34441;-68
2023/06/13 00:49:42;;;;;;;3.45;1.90;;;;;;;25.35;36.09;99486.03;4515772;31;33862;-66
2023/06/13 00:52:09;;;;;;;3.25;1.98;;;;;;;25.35;36.11;99488.78;4500587;31;34348;-69
2023/06/13 00:54:37;;;;;;;5.37;2.17;;;;;;;25.35;36.17;99482.47;4500596;31;33530;-70
2023/06/13 00:57:06;;;;;;;5.50;1.95;;;;;;;25.36;36.16;99475.94;4500592;31;34056;-68
2023/06/13 00:59:33;;;;;;;4.87;2.17;;;;;;;25.35;36.19;99472.38;4500360;31;33981;-68
2023/06/13 01:02:03;;;;;;;3.08;1.90;;;;;;;25.35;36.16;99474.28;4490698;31;33753;-63
2023/06/13 01:04:34;;;;;;;3.90;2.10;;;;;;;25.35;36.13;99474.28;4499427;31;33823;-69
2023/06/13 01:07:05;;;;;;;5.68;2.08;;;;;;;25.35;36.12;99466.91;4500379;31;33615;-69
2023/06/13 01:09:33;;;;;;;4.03;1.70;;;;;;;25.33;36.09;99463.62;4501085;31;33836;-65
2023/06/13 01:12:05;;;;;;;3.37;1.77;;;;;;;25.35;36.07;99463.38;4486833;31;35006;-58
2023/06/13 01:14:46;;;;;;;6.20;2.10;;;;;;;25.34;36.06;99461.72;4501097;31;33922;-68
2023/06/13 01:17:18;;;;;;;7.25;1.98;;;;;;;25.35;36.05;99466.91;4487532;31;33318;-67
2023/06/13 01:19:58;;;;;;;4.85;1.90;;;;;;;25.34;36.04;99467.19;4487219;31;34117;-57
2023/06/13 01:23:20;;;;;;;3.80;2.10;;;;;;;25.35;36.00;99464.19;4486757;31;33644;-57
2023/06/13 01:26:12;;;;;;;3.85;2.00;;;;;;;25.37;35.90;99453.03;4456138;31;33439;-58
2023/06/13 01:28:43;;;;;;;4.43;1.90;;;;;;;25.35;35.94;99455.16;4486825;31;34407;-57
2023/06/13 01:31:15;;;;;;;4.57;1.92;;;;;;;25.32;36.01;99461.13;4500557;31;33881;-58
2023/06/13 01:33:43;;;;;;;3.83;1.90;;;;;;;25.30;36.03;99458.66;4486575;31;34114;-60
2023/06/13 01:36:10;;;;;;;3.65;1.85;;;;;;;25.32;36.00;99452.94;4486709;31;33403;-59
2023/06/13 01:38:39;;;;;;;3.10;1.67;;;;;;;25.32;35.97;99458.38;4486707;31;33923;-56
2023/06/13 01:41:07;;;;;;;3.30;2.00;;;;;;;25.31;35.98;99448.53;4472754;31;33956;-53
2023/06/13 01:43:35;;;;;;;4.03;2.08;;;;;;;25.31;35.92;99443.91;4500936;31;34010;-57
2023/06/13 01:46:27;;;;;;;3.40;1.95;;;;;;;25.31;35.93;99445.81;4500736;31;34531;-55
2023/06/13 01:49:37;;;;;;;5.87;1.87;;;;;;;25.31;35.98;99443.91;4488793;31;34162;-57
2023/06/13 01:52:17;;;;;;;4.72;2.12;;;;;;;25.34;36.00;99445.31;4492363;31;33772;-56
2023/06/13 01:54:49;;;;;;;6.37;2.00;;;;;;;25.32;35.93;99439.28;4486461;31;33997;-54
2023/06/13 01:57:17;;;;;;;3.37;1.73;;;;;;;25.31;35.92;99443.91;4473498;31;34778;-62
2023/06/13 01:59:49;;;;;;;3.10;1.98;;;;;;;25.30;35.94;99433.25;4474313;31;33258;-56
2023/06/13 02:02:16;;;;;;;3.78;1.98;;;;;;;25.31;35.92;99440.34;4485498;31;33799;-57
2023/06/13 02:04:44;;;;;;;3.75;1.80;;;;;;;25.30;35.88;99436.78;4489142;31;34518;-60
2023/06/13 02:07:11;;;;;;;2.97;1.62;;;;;;;25.29;35.90;99437.87;4516591;31;33360;-57
2023/06/13 02:09:39;;;;;;;7.20;2.00;;;;;;;25.30;35.92;99441.44;4516564;31;33184;-61
2023/06/13 02:12:08;;;;;;;5.70;2.10;;;;;;;25.30;35.90;99450.44;4516355;31;33884;-56
2023/06/13 02:14:36;;;;;;;4.70;2.10;;;;;;;25.29;35.90;99448.81;4516479;31;33976;-59
2023/06/13 02:17:05;;;;;;;4.87;2.12;;;;;;;25.29;35.94;99445.25;4516531;31;33983;-57
2023/06/13 02:19:33;;;;;;;3.67;1.87;;;;;;;25.29;35.97;99448.81;4516359;31;33483;-57
2023/06/13 02:22:00;;;;;;;3.15;1.95;;;;;;;25.30;35.81;99449.63;4516593;31;33184;-59
2023/06/13 02:24:28;;;;;;;4.10;1.92;;;;;;;25.29;35.88;99437.06;4516409;31;34144;-58
2023/06/13 02:26:56;;;;;;;3.00;1.83;;;;;;;25.29;35.83;99442.50;4516242;31;34379;-66
2023/06/13 02:29:23;;;;;;;3.35;2.10;;;;;;;25.29;35.85;99442.50;4516588;31;33213;-66
2023/06/13 02:31:54;;;;;;;2.90;1.85;;;;;;;25.28;35.88;99447.16;4516285;31;34071;-64
2023/06/13 02:34:22;;;;;;;5.47;2.17;;;;;;;25.29;35.87;99447.97;4516464;31;33833;-66
2023/06/13 02:36:49;;;;;;;4.53;1.83;;;;;;;25.28;35.82;99441.69;4516428;31;33841;-67
2023/06/13 02:39:17;;;;;;;3.20;1.62;;;;;;;25.27;35.87;99434.56;4516317;31;33731;-66
2023/06/13 02:41:45;;;;;;;3.92;1.87;;;;;;;25.28;35.96;99432.69;4516142;31;34925;-67
2023/06/13 02:44:13;;;;;;;3.55;2.05;;;;;;;25.28;35.95;99427.22;4516619;31;33970;-68
2023/06/13 02:46:40;;;;;;;2.62;1.55;;;;;;;25.27;35.97;99422.81;4516091;31;34034;-69
2023/06/13 02:49:09;;;;;;;4.62;2.15;;;;;;;25.26;35.98;99430.16;4516442;31;34506;-66
2023/06/13 02:51:37;;;;;;;5.57;1.87;;;;;;;25.26;35.90;99430.16;4515793;31;34476;-57
2023/06/13 02:54:04;;;;;;;6.70;2.12;;;;;;;25.26;35.91;99430.16;4516484;31;34343;-53
2023/06/13 02:56:33;;;;;;;4.60;1.70;;;;;;;25.26;35.85;99435.63;4516248;31;34503;-58
2023/06/13 02:59:00;;;;;;;2.97;1.80;;;;;;;25.26;35.87;99435.63;4516243;31;33137;-53
2023/06/13 03:01:29;;;;;;;3.22;1.77;;;;;;;25.26;35.88;99437.53;4509646;31;34738;-62
2023/06/13 03:03:58;;;;;;;3.55;1.83;;;;;;;25.26;35.86;99443.81;4486475;31;34458;-57
2023/06/13 03:06:26;;;;;;;7.20;1.90;;;;;;;25.26;35.84;99435.63;4500089;31;34819;-54
2023/06/13 03:08:58;;;;;;;4.20;1.62;;;;;;;25.26;35.83;99451.19;4486444;31;32958;-58
2023/06/13 03:11:26;;;;;;;4.82;2.12;;;;;;;25.25;35.83;99433.16;4486116;31;34039;-59
2023/06/13 03:13:53;;;;;;;3.30;1.80;;;;;;;25.25;35.79;99435.88;4499993;31;33898;-56
2023/06/13 03:16:21;;;;;;;5.90;2.05;;;;;;;25.25;35.79;99433.16;4499960;31;33744;-58
2023/06/13 03:18:50;;;;;;;;;;;;;;;25.27;35.76;99436.47;4500738;31;34034;-59
2023/06/13 03:21:18;;;;;;;4.57;1.87;;;;;;;25.33;35.63;99436.31;4500231;31;34069;-70
2023/06/13 03:23:46;;;;;;;7.07;2.00;;;;;;;25.27;35.77;99436.47;4499887;31;34047;-68
2023/06/13 03:26:16;;;;;;;6.03;2.00;;;;;;;25.24;35.77;99432.34;4499078;31;33952;-65
2023/06/13 03:28:45;;;;;;;3.90;1.87;;;;;;;25.24;35.85;99426.06;4500242;31;34035;-70
2023/06/13 03:31:14;;;;;;;5.60;1.90;;;;;;;25.25;35.83;99435.88;4511280;31;34777;-69
2023/06/13 03:33:42;;;;;;;5.15;2.05;;;;;;;25.24;35.84;99428.78;4516254;31;34998;-66
2023/06/13 03:36:11;;;;;;;4.78;1.92;;;;;;;25.23;35.81;99444.34;4516108;31;34431;-69
2023/06/13 03:38:39;;;;;;;6.93;1.80;;;;;;;25.24;35.78;99436.97;4515673;31;34390;-70
2023/06/13 03:41:07;;;;;;;2.70;1.62;;;;;;;25.23;35.83;99444.34;4501744;31;33931;-68
2023/06/13 03:43:34;;;;;;;5.47;2.00;;;;;;;25.23;35.84;99438.03;4515734;31;33847;-68
2023/06/13 03:46:02;;;;;;;3.45;1.73;;;;;;;25.24;35.78;99436.97;4515595;31;33565;-63
2023/06/13 03:48:30;;;;;;;5.53;1.85;;;;;;;25.23;35.78;99444.34;4515744;31;34054;-62
2023/06/13 03:50:58;;;;;;;2.87;1.50;;;;;;;25.24;35.76;99439.69;4515867;31;33819;-58
2023/06/13 03:53:27;;;;;;;3.42;1.80;;;;;;;25.22;35.79;99445.37;4515549;31;34871;-63
2023/06/13 03:55:55;;;;;;;2.87;1.42;;;;;;;25.23;35.85;99447.06;4515668;31;33902;-60
2023/06/13 03:58:24;;;;;;;3.47;1.70;;;;;;;25.23;35.82;99446.22;4515772;31;34039;-70
2023/06/13 04:00:54;;;;;;;7.47;2.20;;;;;;;25.23;35.82;99446.22;4513067;31;33841;-69
2023/06/13 04:03:22;;;;;;;6.47;1.98;;;;;;;25.23;35.82;99446.22;4498763;31;33775;-68
2023/06/13 04:05:49;;;;;;;3.22;1.80;;;;;;;25.25;35.83;99444.09;4499750;31;34060;-69
2023/06/13 04:08:19;;;;;;;5.03;1.87;;;;;;;25.22;35.87;99448.12;4499564;31;33392;-69
2023/06/13 04:10:47;;;;;;;;;;;;;;;25.22;35.78;99445.37;4500067;31;33977;-67
2023/06/13 04:13:15;;;;;;;4.85;2.15;;;;;;;25.31;35.59;99443.91;4499440;31;34267;-64
2023/06/13 04:15:43;;;;;;;3.90;2.17;;;;;;;25.24;35.72;99451.44;4499550;31;34032;-65
2023/06/13 04:18:10;;;;;;;2.78;1.75;;;;;;;25.21;35.75;99454.66;4499458;31;34397;-67
2023/06/13 04:20:38;;;;;;;4.72;1.85;;;;;;;25.22;35.79;99455.50;4499238;31;34027;-67
2023/06/13 04:23:06;;;;;;;3.15;1.60;;;;;;;25.21;35.81;99451.09;4499366;31;34010;-70
2023/06/13 04:25:35;;;;;;;6.53;1.95;;;;;;;25.22;35.79;99447.28;4499619;31;33950;-70
2023/06/13 04:28:07;;;;;;;4.35;1.90;;;;;;;25.20;35.84;99450.28;4499021;31;33803;-65
2023/06/13 04:30:36;;;;;;;3.60;1.70;;;;;;;25.21;35.90;99454.66;4498760;31;34630;-69
2023/06/13 04:33:06;;;;;;;5.00;2.15;;;;;;;25.22;35.86;99455.50;4499252;31;33874;-69
2023/06/13 04:35:37;;;;;;;4.15;1.80;;;;;;;25.22;35.84;99455.50;4499113;31;33826;-70
2023/06/13 04:38:08;;;;;;;5.03;1.92;;;;;;;25.21;35.83;99449.19;4499107;31;33156;-69
2023/06/13 04:40:37;;;;;;;3.53;1.80;;;;;;;25.20;35.80;99455.75;4498441;31;33548;-69
2023/06/13 04:43:04;;;;;;;6.20;1.80;;;;;;;25.21;35.74;99457.38;4498576;31;35050;-65
2023/06/13 04:45:33;;;;;;;4.78;1.83;;;;;;;25.21;35.69;99460.13;4498668;31;33911;-70
2023/06/13 04:48:01;;;;;;;4.28;1.92;;;;;;;25.21;35.70;99464.75;4498412;31;32984;-68
2023/06/13 04:50:28;;;;;;;4.72;1.62;;;;;;;25.22;35.58;99458.22;4498694;31;33796;-62
2023/06/13 04:52:57;;;;;;;3.28;2.00;;;;;;;25.22;35.46;99460.94;4484309;31;34702;-62
2023/06/13 04:55:32;;;;;;;5.47;2.10;;;;;;;25.21;35.37;99451.09;4498249;31;34565;-61
2023/06/13 04:58:00;;;;;;;4.90;2.00;;;;;;;25.21;35.30;99453.84;4498776;31;33112;-65
2023/06/13 05:00:28;;;;;;;12.90;2.70;;;;;;;25.21;35.17;99454.66;4498623;31;34070;-66
2023/06/13 05:02:56;;;;;;;4.12;2.10;;;;;;;25.18;34.92;99458.72;4482882;32;34717;-68
2023/06/13 05:05:24;;;;;;;5.00;2.12;;;;;;;25.18;34.45;99466.91;4482895;32;34086;-65
2023/06/13 05:07:55;;;;;;;3.58;1.73;;;;;;;25.18;34.50;99463.34;4482702;32;33426;-68
2023/06/13 05:10:24;;;;;;;3.92;2.15;;;;;;;25.17;34.48;99458.97;4482791;32;33883;-67
2023/06/13 05:12:52;;;;;;;5.60;2.13;;;;;;;25.15;34.41;99461.94;4468842;32;33972;-68
2023/06/13 05:15:20;;;;;;;4.03;1.80;;;;;;;25.14;34.09;99468.47;4483696;32;34146;-69
2023/06/13 05:17:54;;;;;;;2.75;1.80;;;;;;;25.13;33.96;99466.84;4485196;32;34345;-66
2023/06/13 05:20:27;;;;;;;5.17;2.17;;;;;;;25.13;33.97;99460.53;4472252;32;33880;-63
2023/06/13 05:22:54;;;;;;;4.32;1.67;;;;;;;25.13;33.93;99458.66;4485120;32;34610;-63
2023/06/13 05:25:22;;;;;;;4.15;2.10;;;;;;;25.10;33.57;99463.75;4485127;32;34636;-69
2023/06/13 05:27:55;;;;;;;3.55;1.80;;;;;;;25.07;33.18;99458.75;4484841;32;33522;-64
2023/06/13 05:30:22;;;;;;;7.55;2.20;;;;;;;25.06;33.11;99457.09;4485250;32;33978;-66
2023/06/13 05:32:50;;;;;;;5.03;1.70;;;;;;;25.04;33.20;99457.34;4485140;32;33998;-62
2023/06/13 05:35:18;;;;;;;3.42;2.00;;;;;;;25.05;33.39;99460.91;4484909;32;33917;-69
2023/06/13 05:37:46;;;;;;;3.47;1.83;;;;;;;25.05;33.51;99461.72;4484987;32;33302;-67
2023/06/13 05:40:14;;;;;;;4.22;2.12;;;;;;;25.04;33.46;99465.53;4484827;32;34583;-61
2023/06/13 05:42:42;;;;;;;3.80;1.95;;;;;;;25.03;33.31;99469.31;4484839;32;33569;-65
2023/06/13 05:45:09;;;;;;;3.90;2.00;;;;;;;25.03;33.22;99460.31;4484908;32;33903;-63
2023/06/13 05:47:37;;;;;;;4.72;2.05;;;;;;;25.02;33.10;99461.38;4484900;32;33447;-61
2023/06/13 05:50:05;;;;;;;6.28;2.15;;;;;;;25.01;33.08;99457.84;4484755;32;34007;-63
2023/06/13 05:52:33;;;;;;;2.95;1.60;;;;;;;25.01;33.08;99462.47;4484963;32;34053;-64
2023/06/13 05:55:01;;;;;;;3.95;1.95;;;;;;;25.00;33.20;99467.09;4484904;32;34741;-61
2023/06/13 05:57:43;;;;;;;3.53;1.77;;;;;;;25.00;33.21;99463.56;4484688;32;33532;-61
2023/06/13 06:00:13;;;;;;;5.12;2.03;;;;;;;25.01;33.32;99466.03;4484916;32;34702;-64
2023/06/13 06:02:42;;;;;;;3.58;2.00;;;;;;;25.00;33.46;99466.28;4482001;32;34685;-69
2023/06/13 06:05:11;;;;;;;4.10;1.73;;;;;;;24.99;33.38;99462.69;4484617;32;34070;-68
2023/06/13 06:07:39;;;;;;;4.53;2.00;;;;;;;24.96;33.01;99471.41;4484681;32;34481;-61
2023/06/13 06:10:07;;;;;;;4.00;1.92;;;;;;;24.93;32.76;99466.41;4484583;32;34687;-61
2023/06/13 06:12:35;;;;;;;3.47;2.05;;;;;;;24.94;32.78;99466.16;4487231;31;34792;-63
2023/06/13 06:15:03;;;;;;;13.02;3.40;;;;;;;24.94;33.09;99460.69;4493183;31;34008;-67
2023/06/13 06:17:31;;;;;;;11.10;2.67;;;;;;;24.94;33.33;99463.44;4499414;31;33451;-65
2023/06/13 06:19:59;;;;;;;5.43;2.40;;;;;;;24.96;33.25;99471.41;4500560;31;35137;-68
2023/06/13 06:22:27;;;;;;;5.10;2.22;;;;;;;24.96;33.29;99468.66;4500509;31;33862;-63
2023/06/13 06:24:55;;;;;;;7.28;2.30;;;;;;;24.96;33.20;99474.13;4500263;31;33771;-66
2023/06/13 06:27:22;;;;;;;8.77;2.40;;;;;;;24.96;33.35;99463.22;4498428;31;34205;-67
2023/06/13 06:29:51;;;;;;;5.45;1.92;;;;;;;24.97;33.50;99461.28;4480019;31;150799;-61
2023/06/13 06:32:18;;;;;;;3.83;2.10;;;;;;;24.96;33.39;99455.00;4499529;31;34023;-62
2023/06/13 06:34:46;;;;;;;3.42;1.85;;;;;;;24.96;33.38;99455.00;4499899;31;33449;-60
2023/06/13 06:37:14;;;;;;;4.37;2.00;;;;;;;24.97;33.43;99458.56;4500173;31;33990;-64
2023/06/13 06:39:42;;;;;;;5.97;1.92;;;;;;;24.96;33.30;99449.56;4500376;31;33550;-61
2023/06/13 06:42:10;;;;;;;4.47;1.92;;;;;;;24.98;33.40;99452.03;4500751;31;33897;-60
2023/06/13 06:44:40;;;;;;;4.35;2.10;;;;;;;24.97;33.35;99450.38;4500610;31;34083;-61
2023/06/13 06:47:11;;;;;;;4.60;1.98;;;;;;;24.97;33.34;99434.84;4500389;31;34097;-68
2023/06/13 06:49:39;;;;;;;4.35;1.95;;;;;;;24.97;33.10;99442.19;4500378;31;33917;-61
2023/06/13 06:52:08;;;;;;;5.28;2.30;;;;;;;24.95;33.02;99447.91;4500344;31;33920;-64
2023/06/13 06:54:36;;;;;;;7.50;2.12;;;;;;;24.96;32.96;99454.19;4500276;31;34759;-64
2023/06/13 06:57:04;;;;;;;3.60;1.85;;;;;;;24.96;32.97;99452.28;4486015;31;34432;-69
2023/06/13 06:59:32;;;;;;;5.37;1.87;;;;;;;24.94;33.30;99448.97;4485863;31;33933;-69
2023/06/13 07:01:59;;;;;;;4.20;1.73;;;;;;;24.94;33.37;99448.97;4500335;31;34680;-69
2023/06/13 07:04:27;;;;;;;3.45;1.70;;;;;;;24.94;33.45;99452.50;4499607;31;34060;-68
2023/06/13 07:06:55;;;;;;;4.87;1.85;;;;;;;24.96;33.59;99451.47;4485485;31;31847;-68
2023/06/13 07:09:23;;;;;;;4.20;1.87;;;;;;;24.97;33.39;99444.91;4500197;31;33757;-70
2023/06/13 07:11:53;;;;;;;3.92;1.50;;;;;;;24.97;33.28;99447.66;4500479;31;33983;-66
2023/06/13 07:14:21;;;;;;;4.35;1.60;;;;;;;24.97;33.21;99453.09;4499971;31;33779;-69
2023/06/13 07:16:49;;;;;;;4.22;2.12;;;;;;;24.97;33.06;99443.03;4500278;31;33346;-67
2023/06/13 07:19:16;;;;;;;5.03;2.00;;;;;;;24.98;33.10;99441.94;4500067;31;34210;-68
2023/06/13 07:21:44;;;;;;;4.82;1.87;;;;;;;24.98;33.05;99441.94;4500199;31;33644;-70
2023/06/13 07:24:12;;;;;;;3.60;1.92;;;;;;;24.97;33.21;99437.56;4500112;31;33910;-68
2023/06/13 07:26:39;;;;;;;2.90;1.80;;;;;;;24.99;33.14;99445.50;4500052;31;34197;-70
2023/06/13 07:29:07;;;;;;;2.92;1.90;;;;;;;24.98;33.06;99447.41;4499747;31;34661;-61
2023/06/13 07:31:36;;;;;;;4.62;2.20;;;;;;;24.98;32.84;99441.94;4499961;31;35046;-68
2023/06/13 07:34:03;;;;;;;3.50;1.80;;;;;;;24.97;32.47;99443.03;4485829;31;33811;-66
2023/06/13 07:36:43;;;;;;;5.18;2.10;;;;;;;24.96;31.88;99446.81;4487181;31;34180;-68
2023/06/13 07:39:11;;;;;;;4.62;2.42;;;;;;;24.95;31.83;99437.00;4498625;31;33626;-70
2023/06/13 07:41:39;;;;;;;3.25;1.83;;;;;;;24.95;32.21;99423.34;4499727;31;34792;-69
2023/06/13 07:44:07;;;;;;;4.28;2.03;;;;;;;24.96;32.58;99441.38;4472729;31;35055;-70
2023/06/13 07:46:34;;;;;;;2.62;1.45;;;;;;;24.97;32.68;99434.00;4499927;31;33102;-70
2023/06/13 07:49:02;;;;;;;3.97;2.08;;;;;;;24.98;32.64;99432.94;4499691;31;34142;-70
2023/06/13 07:51:30;;;;;;;4.60;1.90;;;;;;;24.98;32.65;99435.66;4499767;31;33659;-62
2023/06/13 07:53:57;;;;;;;3.90;1.92;;;;;;;24.98;32.66;99428.28;4499866;31;33986;-65
2023/06/13 07:56:25;;;;;;;5.22;2.10;;;;;;;24.98;32.86;99422.00;4499736;31;33447;-69
2023/06/13 07:58:52;;;;;;;4.80;1.98;;;;;;;24.99;32.82;99421.75;4499765;31;33648;-70
2023/06/13 08:01:20;;;;;;;3.17;1.70;;;;;;;24.99;32.77;99419.03;4500075;31;33986;-70
2023/06/13 08:03:48;;;;;;;3.30;1.90;;;;;;;24.99;32.94;99413.56;4499502;31;33962;-67
2023/06/13 08:06:16;;;;;;;2.95;1.90;;;;;;;25.01;32.87;99413.34;4499686;31;34244;-70
2023/06/13 08:08:43;;;;;;;6.12;2.20;;;;;;;25.00;32.82;99420.69;4499476;31;34090;-67
2023/06/13 08:11:11;;;;;;;4.12;2.05;;;;;;;25.02;32.76;99417.72;4499382;31;35021;-61
2023/06/13 08:13:38;;;;;;;4.93;2.35;;;;;;;25.02;32.81;99417.72;4499556;31;33842;-69
2023/06/13 08:16:06;;;;;;;4.18;2.28;;;;;;;25.03;32.86;99405.72;4499392;31;33439;-70
2023/06/13 08:18:36;;;;;;;3.55;1.83;;;;;;;25.03;33.03;99414.72;4499074;31;33908;-70
2023/06/13 08:21:04;;;;;;;3.87;2.10;;;;;;;25.03;32.87;99416.63;4485230;31;33089;-68
2023/06/13 08:23:32;;;;;;;3.72;2.15;;;;;;;25.04;32.87;99416.41;4499370;31;34373;-69
2023/06/13 08:26:00;;;;;;;5.37;2.10;;;;;;;25.02;32.77;99418.53;4485196;31;33153;-70
2023/06/13 08:28:29;;;;;;;4.68;2.22;;;;;;;25.04;32.59;99416.41;4499220;31;33583;-68
2023/06/13 08:30:57;;;;;;;4.67;2.03;;;;;;;25.03;32.77;99406.53;4499012;31;33971;-70
2023/06/13 08:33:45;;;;;;;3.83;2.08;;;;;;;25.04;32.71;99413.69;4499100;31;34054;-68
2023/06/13 08:36:35;;;;;;;6.82;2.22;;;;;;;25.03;32.44;99420.19;4499483;31;33517;-69
2023/06/13 08:39:04;;;;;;;6.15;2.12;;;;;;;25.04;32.36;99413.69;4499172;31;34008;-64
2023/06/13 08:41:31;;;;;;;6.05;2.00;;;;;;;25.04;32.47;99407.37;4498949;31;33921;-69
2023/06/13 08:43:59;;;;;;;3.97;2.08;;;;;;;25.04;32.51;99416.41;4499004;31;34752;-68
2023/06/13 08:46:26;;;;;;;3.92;2.12;;;;;;;25.03;32.26;99401.09;4499025;31;33485;-70
2023/06/13 08:48:54;;;;;;;6.53;2.20;;;;;;;25.04;32.36;99407.37;4484664;31;33710;-70
2023/06/13 08:51:22;;;;;;;4.57;2.30;;;;;;;25.03;32.22;99401.09;4501021;31;34773;-63
2023/06/13 08:53:53;;;;;;;5.28;2.30;;;;;;;25.04;31.79;99413.69;4501486;31;33590;-69
2023/06/13 08:56:21;;;;;;;4.25;2.30;;;;;;;25.04;31.63;99404.63;4500932;31;33612;-70
2023/06/13 08:59:01;;;;;;;3.83;2.28;;;;;;;25.03;31.68;99406.53;4501095;31;33965;-69
2023/06/13 09:01:28;;;;;;;3.95;1.90;;;;;;;25.04;31.64;99421.87;4474509;31;33697;-69
2023/06/13 09:03:59;;;;;;;4.35;2.08;;;;;;;25.03;31.64;99398.34;4486959;31;33470;-69
2023/06/13 09:06:27;;;;;;;4.35;2.15;;;;;;;25.05;31.66;99409.03;4487223;31;33451;-68
2023/06/13 09:08:55;;;;;;;4.78;1.92;;;;;;;25.05;31.75;99401.69;4471086;32;33942;-70
2023/06/13 09:11:23;;;;;;;3.92;2.30;;;;;;;25.05;31.82;99406.31;4471137;32;33895;-67
2023/06/13 09:13:51;;;;;;;5.37;2.10;;;;;;;25.05;31.88;99404.41;4458470;32;33919;-70
2023/06/13 09:16:19;;;;;;;3.78;1.77;;;;;;;25.07;31.84;99410.47;4471059;32;34047;-69
2023/06/13 09:18:47;;;;;;;3.28;1.98;;;;;;;25.07;31.91;99402.28;4471086;32;33760;-69
2023/06/13 09:21:15;;;;;;;4.10;2.00;;;;;;;25.08;31.90;99403.94;4458370;32;34863;-70
2023/06/13 09:23:45;;;;;;;;;;;;;;;25.07;31.85;99402.28;4471485;32;34963;-70
2023/06/13 09:26:12;;;;;;;3.97;2.10;;;;;;;25.18;31.72;99401.41;4471181;32;34124;-70
2023/06/13 09:28:40;;;;;;;3.28;1.83;;;;;;;25.12;31.66;99405.09;4470899;32;33782;-66
2023/06/13 09:31:08;;;;;;;5.68;2.42;;;;;;;25.10;31.58;99403.69;4485076;32;34858;-63
2023/06/13 09:33:36;;;;;;;4.37;2.00;;;;;;;25.09;31.40;99405.59;4471223;32;33903;-61
2023/06/13 09:36:07;;;;;;;4.20;2.20;;;;;;;25.09;31.62;99397.41;4485062;32;33459;-61
2023/06/13 09:38:36;;;;;;;3.78;1.67;;;;;;;25.08;31.71;99390.28;4484877;32;34612;-61
2023/06/13 09:41:04;;;;;;;3.35;2.00;;;;;;;25.08;31.63;99382.09;4485350;32;33998;-61
2023/06/13 09:43:32;;;;;;;5.93;2.20;;;;;;;25.10;31.53;99387.31;4484940;32;34382;-61
2023/06/13 09:46:00;;;;;;;4.55;2.00;;;;;;;25.10;31.61;99387.31;4484989;32;33745;-64
2023/06/13 09:48:27;;;;;;;4.32;2.17;;;;;;;25.10;31.69;99385.41;4470651;32;33912;-64
2023/06/13 09:50:55;;;;;;;4.40;2.05;;;;;;;25.11;31.65;99400.72;4470853;32;34023;-69
2023/06/13 09:53:25;;;;;;;6.65;2.20;;;;;;;25.12;31.50;99396.06;4485045;32;34424;-68
2023/06/13 09:55:52;;;;;;;4.00;1.87;;;;;;;25.11;31.55;99397.97;4471083;32;33167;-70
2023/06/13 09:58:20;;;;;;;4.20;2.47;;;;;;;25.12;31.61;99396.91;4485082;32;33908;-70
2023/06/13 10:01:00;;;;;;;3.95;2.20;;;;;;;25.13;31.68;99392.25;4471565;32;33975;-70
2023/06/13 10:03:28;;;;;;;5.43;2.20;;;;;;;25.14;31.74;99400.22;4484867;32;33605;-70
2023/06/13 10:06:00;;;;;;;4.72;2.03;;;;;;;25.14;31.70;99397.50;4484696;32;33400;-68
2023/06/13 10:08:28;;;;;;;6.45;3.15;;;;;;;25.13;31.62;99390.38;4497710;31;34120;-70
2023/06/13 10:10:56;;;;;;;5.72;2.85;;;;;;;25.13;31.77;99395.84;4486384;31;33838;-65
2023/06/13 10:13:28;;;;;;;7.12;3.87;;;;;;;25.14;31.66;99399.41;4473323;31;34486;-69
2023/06/13 10:15:58;;;;;;;6.28;3.62;;;;;;;25.14;31.69;99394.78;4473956;31;33916;-69
2023/06/13 10:18:29;;;;;;;5.53;3.30;;;;;;;25.15;31.79;99384.69;4500453;31;33945;-70
2023/06/13 10:20:57;;;;;;;6.28;3.70;;;;;;;25.13;31.75;99382.19;4486705;31;33836;-70
2023/06/13 10:23:26;;;;;;;8.82;3.97;;;;;;;25.14;31.68;99372.94;4473437;31;33919;-70
2023/06/13 10:25:53;;;;;;;6.20;3.30;;;;;;;25.14;31.13;99375.66;4500433;31;34166;-70
2023/06/13 10:28:50;;;;;;;5.18;3.25;;;;;;;25.14;31.45;99375.66;4500648;31;33573;-68
2023/06/13 10:31:42;;;;;;;6.10;3.12;;;;;;;25.17;31.35;99374.31;4493884;31;34779;-69
2023/06/13 10:34:20;;;;;;;6.28;2.40;;;;;;;25.17;31.34;99377.06;4500277;31;33624;-70
2023/06/13 10:37:13;;;;;;;5.25;2.90;;;;;;;25.14;31.06;99383.84;4500473;31;33486;-68
2023/06/13 10:39:50;;;;;;;5.65;3.00;;;;;;;25.15;30.96;99380.03;4500377;31;33543;-70
2023/06/13 10:42:43;;;;;;;4.53;2.42;;;;;;;25.12;30.97;99383.25;4500350;31;33799;-70
2023/06/13 10:45:15;;;;;;;3.75;2.05;;;;;;;25.14;31.04;99374.84;4486197;31;33647;-70
2023/06/13 10:47:42;;;;;;;4.32;2.40;;;;;;;25.12;30.99;99366.03;4486269;31;33459;-69
2023/06/13 10:50:13;;;;;;;4.18;2.42;;;;;;;25.13;31.08;99370.44;4472946;31;33887;-69
2023/06/13 10:52:54;;;;;;;4.10;2.37;;;;;;;25.12;31.02;99369.59;4486195;31;33862;-70
2023/06/13 10:55:22;;;;;;;6.95;3.12;;;;;;;25.15;31.09;99368.28;4486388;31;33637;-69
2023/06/13 10:57:52;;;;;;;3.85;2.10;;;;;;;25.15;31.13;99368.28;4500364;31;33432;-70
2023/06/13 11:00:34;;;;;;;3.75;2.30;;;;;;;25.16;31.03;99361.75;4500596;31;33954;-70
2023/06/13 11:03:10;;;;;;;4.45;2.37;;;;;;;25.16;30.88;99357.12;4500279;31;34794;-69
2023/06/13 11:05:47;;;;;;;6.18;2.20;;;;;;;25.17;30.96;99366.13;4485878;31;33600;-67
2023/06/13 11:08:20;;;;;;;4.80;2.70;;;;;;;25.17;31.18;99360.66;4488590;31;34298;-69
2023/06/13 11:10:49;;;;;;;4.47;2.58;;;;;;;25.16;31.24;99359.03;4484376;32;33544;-70
2023/06/13 11:13:21;;;;;;;4.90;2.40;;;;;;;25.15;31.30;99360.94;4484103;32;34816;-60
2023/06/13 11:16:15;;;;;;;4.18;2.03;;;;;;;25.15;31.37;99350.00;4468406;32;33857;-65
2023/06/13 11:18:47;;;;;;;3.47;1.92;;;;;;;25.17;31.35;99355.22;4472399;32;33035;-68
2023/06/13 11:21:15;;;;;;;5.25;2.33;;;;;;;25.16;31.41;99348.91;4484239;32;33807;-65
2023/06/13 11:23:51;;;;;;;4.60;2.33;;;;;;;25.16;31.45;99346.19;4499535;31;33986;-69
2023/06/13 11:26:20;;;;;;;4.37;2.15;;;;;;;25.17;31.35;99350.56;4485745;31;34626;-70
2023/06/13 11:28:52;;;;;;;4.18;2.28;;;;;;;25.17;31.07;99349.75;4494796;31;33152;-61
2023/06/13 11:31:20;;;;;;;4.07;2.50;;;;;;;25.16;31.02;99346.19;4511843;31;33799;-63
2023/06/13 11:33:48;;;;;;;5.18;2.37;;;;;;;25.17;31.08;99339.66;4516001;31;34021;-67
2023/06/13 11:36:16;;;;;;;4.60;2.20;;;;;;;25.18;31.03;99337.75;4501500;31;33981;-64
2023/06/13 11:39:05;;;;;;;4.95;2.45;;;;;;;25.17;31.06;99336.91;4515906;31;34161;-64
2023/06/13 11:41:32;;;;;;;3.90;2.30;;;;;;;25.19;30.98;99334.78;4488587;31;33806;-62
2023/06/13 11:44:00;;;;;;;4.72;2.20;;;;;;;25.19;31.02;99342.16;4515876;31;33824;-62
2023/06/13 11:46:28;;;;;;;4.43;2.12;;;;;;;25.18;31.17;99337.75;4474369;31;34549;-61